Danali, Honduras
Current Conditions -  °F | °C
As of 10:00 AM on Friday 19 Dec 2014 (Local Time) from MHTG Reporting Station
Scattered Clouds Scattered Clouds  
Wind Chill: 73°   Ceiling: Unl
Heat Index: 73°   Visibility: 6mi
Dew Point: 66°   Wind: 9mph
Humidity: 78%   Direction: 360°N
Pressure: 30.12"   Gusts: NA
Location:  14.02°N, 86.3°W
Report Text: MHTG 191600Z 36008KT 9999 FEW024 SCT080 23/19 Q1020 A3012NOSIG
Loading
Personal Weather Stations






























Interactive Weather Map New forecast layout! Learn more

10-Day Weather Forecast

Advertisements
Track Severe Weather on mobile